• Join FlightAware (Why Join?)
  • Login
  • US Flag 
10:22PM EDT


 

Airport Tracker/Info


-or-


 

Live Flight TrackerFlight Track Log ✈ FLG3776 ✈ 23-Apr-2013 ✈ KMSP - KAZO

Flight Track Log - Related Links

Times and Time Zones

All times are in EDT time to prevent confusion due to time zone crossing. See the FLG3776 flight status page for this flight to view local times or setup timezone preferences in your user account.

Time Position Orientation Groundspeed Altitude Reporting Facility
EDT Latitude Longitude Course Direction KTS MPH feet Rate Location/Type
08:47PM 44.9050 -93.2261 115° Southeast 167 192 2,300  Level FAA TRACON SMA TRACON (SMA)
08:48PM 44.9206 -93.2236 North 180 207 3,000 3,120 Climbing FAA TRACON SMA TRACON (SMA)
08:48PM 44.9419 -93.2203 North 198 228 4,400 3,360 Climbing FAA TRACON SMA TRACON (SMA)
08:48PM 44.9600 -93.2181 North 209 241 5,200 2,580 Climbing FAA TRACON SMA TRACON (SMA)
08:49PM 44.9792 -93.2142 North 224 258 6,100 2,820 Climbing FAA TRACON SMA TRACON (SMA)
08:49PM 45.0003 -93.1919 37° Northeast 246 283 7,100 2,820 Climbing FAA TRACON SMA TRACON (SMA)
08:49PM 45.0153 -93.1692 47° Northeast 257 296 8,000 2,520 Climbing FAA TRACON SMA TRACON (SMA)
08:50PM 44.7457 -92.7682 110° East  Level Estimated
08:50PM 45.0311 -93.1458 46° Northeast 266 306 8,800  Level FAA TRACON SMA TRACON (SMA)
08:50PM 45.0511 -93.1150 47° Northeast 274 315 9,800 2,700 Climbing FAA TRACON SMA TRACON (SMA)
08:50PM 45.0606 -93.0828 67° East 288 331 10,600 1,560 Climbing FAA TRACON SMA TRACON (SMA)
08:51PM 44.6999 -92.6175 118° Southeast  Level Estimated
08:51PM 45.0594 -93.0461 92° East 306 352 10,900  Level FAA TRACON SMA TRACON (SMA)
08:51PM 45.0406 -93.0022 121° Southeast 337 388 11,300 1,200 Climbing FAA TRACON SMA TRACON (SMA)
08:51PM 45.0208 -92.9689 130° Southeast 353 406 11,700 1,320 Climbing FAA TRACON SMA TRACON (SMA)
08:52PM 44.6539 -92.4670 115° Southeast  Level Estimated
08:52PM 45.0003 -92.9344 130° Southeast 367 422 12,200  Level FAA TRACON SMA TRACON (SMA)
08:52PM 44.9742 -92.8903 130° Southeast 381 438 13,000 2,100 Climbing FAA TRACON SMA TRACON (SMA)
08:52PM 44.9522 -92.8544 131° Southeast 386 444 13,600 1,980 Climbing FAA TRACON SMA TRACON (SMA)
08:53PM 44.9314 -92.8189 130° Southeast 387 445 14,300 1,920 Climbing FAA TRACON SMA TRACON (SMA)
08:53PM 44.9106 -92.7833 130° Southeast 388 447 14,900 1,920 Climbing FAA TRACON SMA TRACON (SMA)
08:53PM 44.8833 -92.7381 130° Southeast 390 449 15,600 2,040 Climbing FAA TRACON SMA TRACON (SMA)
08:54PM 44.8614 -92.7019 131° Southeast 393 452 16,300 2,040 Climbing FAA TRACON SMA TRACON (SMA)
08:54PM 44.8400 -92.6661 130° Southeast 390 449 17,000 2,220 Climbing FAA TRACON SMA TRACON (SMA)
08:54PM 44.8136 -92.6214 130° Southeast 387 445 17,800 2,100 Climbing FAA TRACON SMA TRACON (SMA)
08:55PM 44.7933 -92.5861 129° Southeast 383 441 18,400 1,920 Climbing FAA TRACON SMA TRACON (SMA)
08:55PM 44.7722 -92.5506 130° Southeast 384 442 19,100 1,920 Climbing FAA TRACON SMA TRACON (SMA)
08:55PM 44.7450 -92.5061 131° Southeast 387 445 19,700 1,500 Climbing FAA TRACON SMA TRACON (SMA)
08:56PM 44.7233 -92.4703 130° Southeast 389 448 20,100 1,140 Climbing FAA TRACON SMA TRACON (SMA)
08:56PM 44.6967 -92.4242 129° Southeast 395 455 20,500 1,200 Climbing FAA TRACON SMA TRACON (SMA)
08:56PM 44.6744 -92.3878 131° Southeast 399 459 20,900 1,380 Climbing FAA TRACON SMA TRACON (SMA)
08:57PM 44.6519 -92.3508 131° Southeast 403 464 21,400 1,380 Climbing FAA TRACON SMA TRACON (SMA)
08:57PM 44.6297 -92.3131 130° Southeast 405 466 21,800 1,200 Climbing FAA TRACON SMA TRACON (SMA)
08:57PM 44.6019 -92.2661 130° Southeast 408 470 22,200 1,020 Climbing FAA TRACON SMA TRACON (SMA)
08:58PM 44.5789 -92.2283 131° Southeast 412 474 22,500 900 Climbing FAA TRACON SMA TRACON (SMA)
08:58PM 44.5558 -92.1900 130° Southeast 417 480 22,800 1,020 Climbing FAA TRACON SMA TRACON (SMA)
08:58PM 44.5278 -92.1389 128° Southeast 425 489 23,200 1,020 Climbing FAA TRACON SMA TRACON (SMA)
08:59PM 44.5089 -92.0956 121° Southeast 428 493 23,500 900 Climbing FAA TRACON SMA TRACON (SMA)
08:59PM 44.4869 -92.0539 126° Southeast 431 496 23,800 1,020 Climbing FAA TRACON SMA TRACON (SMA)
08:59PM 44.4603 -92.0011 125° Southeast 433 498 24,200 900 Climbing FAA TRACON SMA TRACON (SMA)
09:00PM 44.4494 -91.9797 125° Southeast 433 498 24,400 780 Climbing FAA TRACON SMA TRACON (SMA)
09:00PM 44.3803 -91.8692 131° Southeast 433 498 25,200 1,080 Climbing Minneapolis Center
09:02PM 44.3081 -91.6867 119° Southeast 449 517 26,500 840 Climbing Minneapolis Center
09:03PM 44.2492 -91.5358 119° Southeast 448 516 27,000 240 Climbing Minneapolis Center
09:04PM 44.1889 -91.3769 118° Southeast 458 527 27,000  Level Minneapolis Center
09:05PM 44.1267 -91.2131 118° Southeast 469 540 27,000  Level Minneapolis Center
09:06PM 44.0658 -91.0564 118° Southeast 464 534 27,000  Level Minneapolis Center
09:07PM 44.0053 -90.9019 119° Southeast 459 528 27,000  Level Minneapolis Center
09:08PM 43.9308 -90.7147 119° Southeast 463 533 27,000  Level Minneapolis Center
09:09PM 43.8692 -90.5564 118° Southeast 468 539 27,000  Level Minneapolis Center
09:10PM 43.8014 -90.3856 119° Southeast 468 539 27,000  Level Minneapolis Center
09:11PM 43.7436 -90.2419 119° Southeast 470 541 27,000  Level Minneapolis Center
09:12PM 43.6744 -90.0703 119° Southeast 469 540 27,000  Level Minneapolis Center
09:13PM 43.6114 -89.9139 119° Southeast 467 537 27,000  Level Minneapolis Center
09:13PM 43.5900 -89.8614 119° Southeast 469 540 27,000  Level Chicago Center
09:14PM 43.5322 -89.6983 116° Southeast 478 550 27,000  Level Chicago Center
09:15PM 43.4822 -89.5264 112° Southeast 484 557 27,000  Level Chicago Center
09:16PM 43.4322 -89.3547 112° Southeast 484 557 27,000  Level Chicago Center
09:17PM 43.3750 -89.1547 111° Southeast 483 556 27,000  Level Chicago Center
09:18PM 43.3247 -88.9861 112° Southeast 482 555 27,000  Level Chicago Center
09:19PM 43.2747 -88.8194 112° Southeast 477 549 27,000  Level Chicago Center
09:20PM 43.2250 -88.6542 112° Southeast 475 547 27,000  Level Chicago Center
09:21PM 43.1669 -88.4625 112° Southeast 473 544 27,000  Level Chicago Center
09:22PM 43.1161 -88.2975 113° Southeast 473 544 27,000  Level Chicago Center
09:24PM 43.0669 -88.1331 112° Southeast 471 542 27,000  Level Chicago Center
09:25PM 43.0156 -87.9672 113° Southeast 473 544 27,000  Level Chicago Center
09:26PM 42.9642 -87.8019 113° Southeast 473 544 27,000 -480 Level Chicago Center
09:27PM 42.9036 -87.6072 113° Southeast 478 550 26,100 -960 Descending Chicago Center
09:28PM 42.8517 -87.4408 113° Southeast 478 550 25,100 -960 Descending Chicago Center
09:29PM 42.8044 -87.2936 114° Southeast 473 544 24,200 -960 Descending Chicago Center
09:30PM 42.7544 -87.1319 113° Southeast 468 539 23,200 -1,080 Descending Chicago Center
09:31PM 42.6922 -86.9411 114° Southeast 463 533 22,000 -1,080 Descending Chicago Center
09:32PM 42.6408 -86.7847 114° Southeast 457 526 21,000 -540 Descending Chicago Center
09:33PM 42.5947 -86.6389 113° Southeast 428 493 20,900 -660 Descending Chicago Center
09:34PM 42.5464 -86.4925 114° Southeast 426 490 19,700 -1,320 Descending Chicago Center
09:35PM 42.5008 -86.3533 114° Southeast 411 473 18,200 -1,500 Descending Chicago Center
09:36PM 42.4567 -86.2217 114° Southeast 393 452 16,700 -1,620 Descending Chicago Center
09:37PM 42.4031 -86.0606 114° Southeast 392 451 14,900 -1,680 Descending Chicago Center
09:38PM 42.3619 -85.9350 114° Southeast 373 429 13,300 -1,680 Descending Chicago Center
09:39PM 42.3239 -85.8208 114° Southeast 341 392 11,500 -1,680 Descending Chicago Center
09:40PM 42.2894 -85.7161 114° Southeast 316 364 9,900 -2,280 Descending Chicago Center
09:41PM 42.2317 -85.6436 137° Southeast 278 320 6,900 -2,760 Descending Chicago Center
09:42PM 42.1650 -85.6231 167° South 249 287 4,300 -1,980 Descending Chicago Center
09:43PM 42.1019 -85.6100 171° South 235 270 2,900 -780 Descending Chicago Center
09:44PM 42.0819 -85.5528 115° Southeast 210 242 2,800 -60 Descending Chicago Center
09:45PM 42.1200 -85.5239 29° Northeast 196 226 2,800  Level Chicago Center